createdAt,value
2023-03-26T00:01:21.683Z,11.43
2023-03-26T00:03:53.585Z,11.35
2023-03-26T00:06:31.880Z,11.54
2023-03-26T00:08:58.863Z,11.51
2023-03-26T00:11:27.905Z,11.43
2023-03-26T00:13:58.675Z,11.56
2023-03-26T00:16:28.397Z,11.54
2023-03-26T00:18:55.631Z,11.40
2023-03-26T00:21:28.988Z,11.43
2023-03-26T00:23:59.725Z,11.48
2023-03-26T00:26:31.248Z,11.41
2023-03-26T00:29:00.122Z,11.59
2023-03-26T00:31:27.208Z,11.64
2023-03-26T00:33:57.765Z,11.66
2023-03-26T00:36:26.741Z,11.74
2023-03-26T00:38:54.327Z,11.74
2023-03-26T00:41:25.563Z,11.66
2023-03-26T00:43:56.369Z,11.69
2023-03-26T00:46:25.554Z,11.76
2023-03-26T00:48:52.643Z,11.73
2023-03-26T00:51:20.918Z,11.95
2023-03-26T00:53:49.647Z,11.74
2023-03-26T00:56:16.774Z,11.64
2023-03-26T00:58:43.609Z,11.64
2023-03-26T01:01:13.966Z,11.69
2023-03-26T01:03:50.366Z,11.79
2023-03-26T01:06:35.749Z,11.54
2023-03-26T01:09:11.509Z,11.88
2023-03-26T01:11:38.137Z,11.57
2023-03-26T01:14:07.310Z,11.69
2023-03-26T01:16:38.990Z,11.39
2023-03-26T01:19:44.809Z,11.83
2023-03-26T01:22:20.863Z,11.78
2023-03-26T01:24:53.107Z,11.71
2023-03-26T01:27:27.930Z,11.96
2023-03-26T01:29:58.745Z,12.09
2023-03-26T01:32:34.637Z,12.07
2023-03-26T01:35:24.218Z,12.11
2023-03-26T01:38:01.954Z,12.20
2023-03-26T01:40:42.914Z,12.20
2023-03-26T01:43:36.414Z,12.17
2023-03-26T01:46:06.712Z,12.15
2023-03-26T01:48:39.591Z,12.12
2023-03-26T01:51:08.369Z,12.14
2023-03-26T01:53:42.231Z,12.13
2023-03-26T01:56:26.539Z,12.18
2023-03-26T01:58:53.276Z,12.17
2023-03-26T02:01:54.836Z,12.10
2023-03-26T02:04:26.384Z,12.11
2023-03-26T02:07:05.709Z,12.09
2023-03-26T02:09:37.820Z,12.04
2023-03-26T02:12:06.565Z,12.06
2023-03-26T02:14:34.306Z,11.91
2023-03-26T02:17:00.949Z,12.00
2023-03-26T02:19:27.616Z,12.03
2023-03-26T02:21:59.690Z,12.06
2023-03-26T02:24:27.617Z,12.00
2023-03-26T02:26:58.057Z,12.01
2023-03-26T02:29:26.880Z,11.94
2023-03-26T02:31:54.198Z,12.00
2023-03-26T02:34:21.226Z,11.95
2023-03-26T02:36:52.812Z,12.07
2023-03-26T02:39:19.549Z,11.90
2023-03-26T02:41:54.445Z,11.87
2023-03-26T02:44:21.102Z,11.79
2023-03-26T02:46:59.714Z,11.90
2023-03-26T02:49:45.127Z,11.84
2023-03-26T02:52:18.656Z,11.86
2023-03-26T02:54:47.361Z,11.91
2023-03-26T02:57:23.789Z,11.97
2023-03-26T03:00:15.076Z,12.07
2023-03-26T03:02:47.892Z,11.99
2023-03-26T03:05:46.996Z,11.97
2023-03-26T03:08:13.787Z,11.87
2023-03-26T03:11:04.162Z,11.99
2023-03-26T03:13:39.068Z,12.02
2023-03-26T03:16:06.821Z,12.08
2023-03-26T03:18:33.623Z,12.08
2023-03-26T03:21:00.963Z,12.10
2023-03-26T03:23:27.590Z,12.06
2023-03-26T03:26:04.010Z,12.03
2023-03-26T03:28:32.480Z,12.16
2023-03-26T03:30:59.275Z,12.20
2023-03-26T03:33:30.419Z,12.29
2023-03-26T03:35:57.393Z,11.72
2023-03-26T03:38:24.336Z,11.95
2023-03-26T03:40:54.317Z,11.93
2023-03-26T03:43:22.415Z,12.14
2023-03-26T03:46:02.974Z,12.17
2023-03-26T03:48:38.328Z,12.15
2023-03-26T03:51:06.652Z,12.03
2023-03-26T03:53:52.679Z,11.99
2023-03-26T03:56:32.427Z,11.99
2023-03-26T03:59:32.442Z,12.04
2023-03-26T04:01:59.583Z,12.06
2023-03-26T04:04:34.297Z,12.02
2023-03-26T04:07:05.508Z,12.02
2023-03-26T04:09:47.330Z,11.97
2023-03-26T04:12:17.681Z,11.88
2023-03-26T04:14:58.742Z,11.85
2023-03-26T04:17:26.093Z,11.65
2023-03-26T04:19:55.381Z,11.88
2023-03-26T04:22:36.350Z,11.70
2023-03-26T04:25:07.566Z,11.76
2023-03-26T04:27:46.131Z,11.81
2023-03-26T04:30:20.634Z,11.95
2023-03-26T04:32:58.307Z,11.98
2023-03-26T04:35:26.372Z,11.98
2023-03-26T04:37:56.288Z,11.88
2023-03-26T04:40:30.516Z,11.86
2023-03-26T04:43:18.103Z,11.80
2023-03-26T04:45:47.888Z,11.91
2023-03-26T04:48:15.478Z,11.98
2023-03-26T04:50:44.126Z,11.96
2023-03-26T04:53:15.641Z,12.09
2023-03-26T04:56:09.060Z,11.82
2023-03-26T04:59:13.718Z,12.07
2023-03-26T05:01:42.042Z,12.04
2023-03-26T05:04:14.250Z,12.10
2023-03-26T05:06:41.766Z,12.13
2023-03-26T05:09:18.037Z,12.10
2023-03-26T05:12:03.646Z,12.08
2023-03-26T05:14:38.702Z,12.16
2023-03-26T05:17:15.178Z,11.99
2023-03-26T05:19:41.925Z,11.95
2023-03-26T05:22:08.742Z,12.02
2023-03-26T05:24:40.969Z,12.01
2023-03-26T05:27:07.754Z,11.96
2023-03-26T05:29:35.569Z,11.93
2023-03-26T05:32:02.283Z,12.01
2023-03-26T05:34:28.990Z,11.85
2023-03-26T05:36:56.268Z,11.91
2023-03-26T05:39:53.051Z,11.84
2023-03-26T05:42:39.168Z,11.96
2023-03-26T05:45:32.029Z,12.04
2023-03-26T05:48:03.100Z,12.07
2023-03-26T05:50:29.849Z,12.03
2023-03-26T05:52:59.689Z,12.10
2023-03-26T05:56:04.925Z,12.01
2023-03-26T05:58:51.977Z,12.09
2023-03-26T06:01:51.434Z,12.13
2023-03-26T06:04:42.981Z,12.15
2023-03-26T06:07:28.660Z,12.04
2023-03-26T06:10:09.532Z,12.08
2023-03-26T06:12:36.903Z,12.06
2023-03-26T06:15:04.395Z,12.00
2023-03-26T06:17:47.663Z,11.86
2023-03-26T06:20:31.178Z,11.76
2023-03-26T06:22:58.248Z,11.69
2023-03-26T06:25:44.209Z,11.60
2023-03-26T06:28:34.146Z,11.53
2023-03-26T06:31:12.691Z,11.49
2023-03-26T06:33:51.280Z,11.31
2023-03-26T06:36:19.948Z,11.40
2023-03-26T06:38:49.199Z,11.50
2023-03-26T06:41:16.202Z,11.29
2023-03-26T06:44:09.638Z,11.38
2023-03-26T06:47:05.377Z,11.66
2023-03-26T06:49:58.354Z,11.50
2023-03-26T06:52:28.605Z,11.45
2023-03-26T06:55:23.906Z,11.54
2023-03-26T06:58:13.579Z,11.47
2023-03-26T07:00:59.142Z,11.36
2023-03-26T07:03:44.499Z,11.33
2023-03-26T07:06:29.953Z,11.31
2023-03-26T07:09:15.304Z,11.61
2023-03-26T07:12:06.343Z,11.65
2023-03-26T07:15:03.671Z,11.58
2023-03-26T07:17:45.703Z,11.20
2023-03-26T07:20:16.264Z,11.70
2023-03-26T07:22:44.458Z,11.94
2023-03-26T07:25:18.248Z,11.83
2023-03-26T07:28:21.884Z,11.99
2023-03-26T07:31:27.300Z,12.20
2023-03-26T07:34:50.440Z,12.25
2023-03-26T07:37:30.984Z,12.11
2023-03-26T07:40:50.588Z,11.92
2023-03-26T07:44:04.451Z,11.14
2023-03-26T07:46:54.872Z,11.33
2023-03-26T07:49:55.517Z,11.71
2023-03-26T07:52:48.848Z,12.03
2023-03-26T07:56:20.507Z,12.30
2023-03-26T07:59:18.053Z,12.32
2023-03-26T08:02:17.657Z,12.94
2023-03-26T08:04:50.538Z,12.95
2023-03-26T08:08:38.127Z,12.73
2023-03-26T08:11:39.922Z,13.04
2023-03-26T08:14:06.866Z,12.72
2023-03-26T08:16:57.209Z,12.94
2023-03-26T08:19:49.010Z,12.57
2023-03-26T08:22:50.720Z,12.36
2023-03-26T08:25:36.016Z,12.88
2023-03-26T08:28:30.251Z,12.69
2023-03-26T08:30:57.765Z,12.76
2023-03-26T08:33:27.930Z,12.19
2023-03-26T08:35:54.674Z,12.25
2023-03-26T08:38:22.042Z,12.51
2023-03-26T08:41:07.025Z,13.43
2023-03-26T08:43:46.088Z,16.47
2023-03-26T08:46:33.241Z,18.19
2023-03-26T08:49:30.243Z,20.64
2023-03-26T08:52:30.680Z,20.99
2023-03-26T08:55:36.451Z,21.11
2023-03-26T08:58:37.263Z,21.18
2023-03-26T09:01:37.503Z,19.83
2023-03-26T09:04:22.898Z,18.10
2023-03-26T09:07:07.751Z,16.76
2023-03-26T09:09:52.620Z,15.91
2023-03-26T09:12:37.847Z,15.17
2023-03-26T09:15:33.805Z,14.94
2023-03-26T09:18:12.592Z,14.10
2023-03-26T09:20:54.763Z,14.33
2023-03-26T09:23:28.971Z,14.77
2023-03-26T09:26:04.851Z,15.75
2023-03-26T09:29:11.949Z,17.01
2023-03-26T09:31:41.782Z,17.80
2023-03-26T09:34:26.243Z,17.34
2023-03-26T09:37:19.679Z,19.27
2023-03-26T09:40:14.220Z,20.90
2023-03-26T09:42:44.412Z,19.56
2023-03-26T09:45:38.725Z,18.30
2023-03-26T09:48:24.325Z,20.01
2023-03-26T09:50:54.025Z,18.78
2023-03-26T09:53:23.947Z,18.29
2023-03-26T09:56:16.246Z,17.61
2023-03-26T09:58:56.698Z,15.94
2023-03-26T10:01:42.354Z,16.22
2023-03-26T10:04:38.500Z,15.72
2023-03-26T10:07:40.649Z,15.87
2023-03-26T10:10:35.685Z,15.42
2023-03-26T10:13:16.067Z,15.82
2023-03-26T10:16:21.165Z,15.58
2023-03-26T10:19:21.862Z,15.14
2023-03-26T10:22:10.629Z,14.89
2023-03-26T10:24:46.733Z,15.19
2023-03-26T10:27:30.576Z,15.67
2023-03-26T10:30:15.953Z,16.01
2023-03-26T10:32:45.239Z,15.08
2023-03-26T10:35:37.142Z,14.73
2023-03-26T10:38:30.016Z,14.67
2023-03-26T10:41:25.196Z,14.43
2023-03-26T10:44:05.141Z,14.75
2023-03-26T10:46:47.251Z,14.66
2023-03-26T10:49:27.130Z,14.77
2023-03-26T10:52:23.093Z,14.21
2023-03-26T10:55:03.429Z,14.33
2023-03-26T10:57:38.017Z,15.23
2023-03-26T11:00:25.526Z,15.46
2023-03-26T11:03:17.363Z,15.26
2023-03-26T11:06:11.895Z,15.13
2023-03-26T11:09:10.136Z,15.55
2023-03-26T11:11:50.308Z,15.72
2023-03-26T11:14:34.720Z,16.07
2023-03-26T11:17:41.157Z,15.85
2023-03-26T11:20:11.180Z,15.87
2023-03-26T11:22:46.721Z,15.45
2023-03-26T11:25:36.835Z,16.08
2023-03-26T11:28:13.915Z,16.33
2023-03-26T11:30:46.723Z,15.97
2023-03-26T11:33:21.328Z,16.49
2023-03-26T11:35:51.364Z,17.45
2023-03-26T11:38:37.247Z,17.65
2023-03-26T11:41:12.587Z,17.18
2023-03-26T11:43:54.251Z,16.46
2023-03-26T11:46:23.702Z,16.54
2023-03-26T11:48:58.130Z,16.73
2023-03-26T11:51:34.507Z,16.54
2023-03-26T11:54:03.037Z,16.94
2023-03-26T11:56:35.877Z,16.46
2023-03-26T11:59:21.661Z,15.94
2023-03-26T12:01:52.237Z,16.38
2023-03-26T12:04:40.707Z,16.35
2023-03-26T12:07:14.238Z,15.84
2023-03-26T12:10:18.447Z,16.48
2023-03-26T12:12:47.494Z,15.99
2023-03-26T12:15:15.781Z,16.63
2023-03-26T12:17:43.131Z,16.15
2023-03-26T12:20:42.553Z,16.67
2023-03-26T12:23:44.394Z,16.72
2023-03-26T12:26:16.355Z,16.44
2023-03-26T12:28:50.495Z,16.66
2023-03-26T12:31:19.046Z,16.43
2023-03-26T12:34:05.973Z,16.40
2023-03-26T12:36:36.025Z,16.20
2023-03-26T12:40:08.931Z,15.99
2023-03-26T12:44:46.607Z,16.04
2023-03-26T12:45:14.770Z,16.17
2023-03-26T12:48:02.259Z,16.05
2023-03-26T12:51:10.949Z,15.93
2023-03-26T12:53:58.518Z,16.18
2023-03-26T12:56:38.469Z,15.99
2023-03-26T12:59:18.421Z,16.01
2023-03-26T13:02:25.073Z,15.75
2023-03-26T13:05:19.620Z,15.88
2023-03-26T13:07:52.432Z,15.58
2023-03-26T13:10:37.881Z,15.77
2023-03-26T13:13:38.735Z,15.88
2023-03-26T13:16:24.355Z,14.82
2023-03-26T13:18:57.063Z,14.89
2023-03-26T13:22:12.870Z,14.55
2023-03-26T13:25:09.293Z,14.12
2023-03-26T13:28:14.497Z,14.00
2023-03-26T13:31:10.443Z,13.80
2023-03-26T13:33:54.751Z,14.16
2023-03-26T13:36:39.139Z,14.06
2023-03-26T13:39:22.301Z,14.24
2023-03-26T13:41:59.538Z,13.94
2023-03-26T13:44:31.890Z,13.62
2023-03-26T13:47:10.546Z,13.99
2023-03-26T13:49:40.214Z,13.75
2023-03-26T13:52:32.882Z,13.94
2023-03-26T13:55:30.489Z,14.08
2023-03-26T13:58:04.873Z,13.72
2023-03-26T14:01:04.603Z,13.96
2023-03-26T14:03:37.545Z,14.03
2023-03-26T14:06:11.490Z,13.95
2023-03-26T14:08:44.657Z,13.80
2023-03-26T14:11:32.900Z,13.39
2023-03-26T14:14:13.827Z,13.33
2023-03-26T14:16:46.874Z,13.47
2023-03-26T14:19:54.101Z,13.52
2023-03-26T14:22:39.687Z,13.33
2023-03-26T14:25:28.084Z,13.68
2023-03-26T14:27:57.594Z,13.95
2023-03-26T14:30:36.093Z,13.82
2023-03-26T14:33:38.668Z,13.61
2023-03-26T14:36:34.437Z,13.65
2023-03-26T14:39:13.036Z,14.08
2023-03-26T14:41:53.293Z,13.73
2023-03-26T14:44:52.493Z,13.39
2023-03-26T14:47:21.364Z,13.69
2023-03-26T14:50:09.193Z,14.12
2023-03-26T14:52:49.964Z,13.95
2023-03-26T14:55:22.925Z,14.34
2023-03-26T14:58:03.859Z,13.50
2023-03-26T15:01:04.366Z,13.52
2023-03-26T15:04:08.510Z,13.46
2023-03-26T15:06:47.332Z,13.15
2023-03-26T15:09:32.197Z,13.03
2023-03-26T15:12:33.398Z,13.42
2023-03-26T15:15:25.945Z,12.70
2023-03-26T15:18:13.227Z,12.24
2023-03-26T15:21:17.652Z,12.37
2023-03-26T15:23:53.230Z,12.85
2023-03-26T15:26:50.952Z,12.98
2023-03-26T15:29:56.377Z,13.52
2023-03-26T15:33:00.588Z,14.02
2023-03-26T15:35:45.868Z,13.96
2023-03-26T15:38:35.524Z,14.07
2023-03-26T15:41:17.462Z,13.84
2023-03-26T15:46:38.045Z,13.76
2023-03-26T15:49:27.422Z,13.79
2023-03-26T15:52:06.321Z,13.30
2023-03-26T15:54:46.765Z,13.54
2023-03-26T15:57:43.845Z,13.47
2023-03-26T16:00:34.398Z,13.42
2023-03-26T16:03:10.064Z,12.89
2023-03-26T16:06:00.002Z,12.70
2023-03-26T16:08:38.767Z,12.67
2023-03-26T16:11:12.520Z,12.72
2023-03-26T16:13:40.888Z,12.84
2023-03-26T16:16:16.422Z,12.68
2023-03-26T16:19:16.882Z,12.80
2023-03-26T16:21:54.957Z,13.02
2023-03-26T16:24:27.994Z,12.92
2023-03-26T16:27:10.549Z,13.02
2023-03-26T16:30:31.849Z,12.61
2023-03-26T16:33:17.598Z,12.86
2023-03-26T16:35:59.578Z,13.07
2023-03-26T16:38:27.260Z,12.95
2023-03-26T16:41:22.550Z,12.88
2023-03-26T16:44:02.187Z,13.05
2023-03-26T16:46:38.130Z,13.10
2023-03-26T16:49:28.511Z,13.34
2023-03-26T16:52:03.454Z,13.04
2023-03-26T16:54:32.816Z,12.69
2023-03-26T16:57:26.120Z,12.78
2023-03-26T17:00:16.371Z,12.39
2023-03-26T17:03:06.369Z,12.71
2023-03-26T17:05:36.696Z,12.47
2023-03-26T17:08:36.332Z,12.59
2023-03-26T17:11:06.637Z,12.36
2023-03-26T17:13:44.762Z,12.68
2023-03-26T17:16:29.758Z,12.44
2023-03-26T17:19:46.728Z,12.35
2023-03-26T17:22:35.358Z,12.54
2023-03-26T17:25:08.320Z,12.09
2023-03-26T17:27:57.195Z,12.08
2023-03-26T17:30:41.087Z,11.86
2023-03-26T17:33:23.213Z,12.01
2023-03-26T17:35:51.666Z,11.88
2023-03-26T17:38:18.308Z,11.83
2023-03-26T17:40:55.164Z,11.61
2023-03-26T17:43:41.913Z,11.67
2023-03-26T17:46:33.649Z,11.55
2023-03-26T17:49:13.249Z,11.46
2023-03-26T17:51:56.610Z,11.72
2023-03-26T17:54:33.703Z,11.49
2023-03-26T17:57:12.515Z,11.71
2023-03-26T17:59:40.951Z,11.72
2023-03-26T18:02:14.200Z,11.54
2023-03-26T18:04:45.540Z,11.76
2023-03-26T18:07:37.504Z,11.53
2023-03-26T18:10:10.571Z,11.39
2023-03-26T18:12:54.921Z,11.49
2023-03-26T18:15:36.672Z,11.50
2023-03-26T18:18:30.553Z,11.38
2023-03-26T18:21:00.831Z,11.35
2023-03-26T18:23:35.550Z,11.20
2023-03-26T18:26:16.153Z,11.50
2023-03-26T18:28:45.844Z,11.61
2023-03-26T18:31:23.238Z,11.68
2023-03-26T18:33:54.272Z,11.87
2023-03-26T18:36:24.510Z,11.64
2023-03-26T18:38:57.790Z,11.84
2023-03-26T18:41:34.239Z,11.71
2023-03-26T18:44:04.136Z,11.59
2023-03-26T18:46:32.479Z,11.69
2023-03-26T18:49:02.932Z,11.24
2023-03-26T18:51:31.829Z,11.21
2023-03-26T18:54:02.676Z,11.67
2023-03-26T18:56:43.587Z,11.76
2023-03-26T18:59:28.826Z,11.76
2023-03-26T19:01:57.595Z,11.72
2023-03-26T19:04:27.259Z,11.47
2023-03-26T19:06:55.998Z,11.74
2023-03-26T19:09:31.604Z,11.18
2023-03-26T19:12:06.366Z,11.49
2023-03-26T19:14:36.810Z,11.32
2023-03-26T19:17:06.948Z,11.31
2023-03-26T19:19:37.370Z,11.17
2023-03-26T19:22:06.397Z,11.04
2023-03-26T19:24:34.050Z,11.18
2023-03-26T19:27:01.038Z,11.34
2023-03-26T19:29:32.438Z,11.21
2023-03-26T19:32:16.454Z,11.48
2023-03-26T19:34:44.851Z,11.57
2023-03-26T19:37:19.487Z,11.13
2023-03-26T19:39:51.143Z,11.01
2023-03-26T19:42:26.433Z,10.81
2023-03-26T19:44:54.104Z,10.89
2023-03-26T19:47:48.443Z,11.08
2023-03-26T19:50:29.034Z,10.93
2023-03-26T19:53:17.157Z,11.11
2023-03-26T19:55:59.765Z,10.95
2023-03-26T19:58:27.329Z,11.00
2023-03-26T20:00:56.089Z,10.94
2023-03-26T20:03:27.829Z,10.90
2023-03-26T20:05:54.918Z,10.81
2023-03-26T20:08:26.802Z,10.96
2023-03-26T20:10:55.590Z,11.00
2023-03-26T20:13:22.424Z,11.06
2023-03-26T20:16:06.043Z,10.74
2023-03-26T20:18:34.227Z,11.13
2023-03-26T20:21:00.891Z,11.03
2023-03-26T20:23:28.765Z,11.07
2023-03-26T20:25:55.926Z,11.12
2023-03-26T20:28:24.187Z,10.87
2023-03-26T20:30:54.267Z,11.05
2023-03-26T20:33:26.985Z,11.31
2023-03-26T20:35:55.337Z,11.01
2023-03-26T20:38:36.556Z,11.06
2023-03-26T20:41:06.813Z,11.10
2023-03-26T20:43:33.459Z,11.36
2023-03-26T20:46:00.603Z,11.30
2023-03-26T20:48:27.490Z,11.32
2023-03-26T20:50:54.142Z,11.20
2023-03-26T20:53:20.875Z,11.26
2023-03-26T20:55:49.223Z,11.24
2023-03-26T20:58:31.033Z,11.28
2023-03-26T21:01:02.789Z,11.26
2023-03-26T21:03:29.467Z,11.49
2023-03-26T21:05:59.878Z,11.43
2023-03-26T21:08:30.125Z,11.54
2023-03-26T21:11:01.955Z,11.50
2023-03-26T21:13:45.869Z,11.51
2023-03-26T21:16:13.248Z,11.50
2023-03-26T21:18:40.155Z,11.45
2023-03-26T21:21:30.702Z,11.49
2023-03-26T21:24:21.783Z,11.81
2023-03-26T21:27:14.532Z,11.87
2023-03-26T21:29:41.800Z,11.79
2023-03-26T21:32:11.122Z,11.86
2023-03-26T21:34:42.070Z,11.49
2023-03-26T21:37:15.440Z,11.52
2023-03-26T21:39:44.792Z,11.57
2023-03-26T21:42:12.853Z,11.73
2023-03-26T21:44:39.933Z,11.75
2023-03-26T21:47:09.789Z,11.61
2023-03-26T21:49:37.308Z,11.63
2023-03-26T21:52:04.492Z,11.64
2023-03-26T21:54:32.682Z,11.64
2023-03-26T21:57:02.200Z,11.77
2023-03-26T21:59:35.058Z,11.70
2023-03-26T22:02:06.512Z,11.59
2023-03-26T22:04:42.177Z,11.68
2023-03-26T22:07:17.837Z,11.68
2023-03-26T22:09:45.103Z,11.80
2023-03-26T22:12:12.507Z,11.93
2023-03-26T22:14:39.215Z,11.85
2023-03-26T22:17:06.651Z,11.82
2023-03-26T22:19:34.630Z,11.88
2023-03-26T22:22:01.660Z,11.82
2023-03-26T22:24:29.252Z,11.56
2023-03-26T22:26:56.058Z,11.82
2023-03-26T22:29:22.914Z,11.76
2023-03-26T22:31:49.589Z,11.67
2023-03-26T22:34:16.600Z,11.81
2023-03-26T22:36:43.681Z,11.84
2023-03-26T22:39:10.691Z,11.96
2023-03-26T22:41:37.437Z,11.93
2023-03-26T22:44:16.967Z,11.86
2023-03-26T22:46:48.958Z,11.78
2023-03-26T22:49:16.421Z,11.89
2023-03-26T22:51:43.480Z,11.95
2023-03-26T22:54:10.204Z,11.91
2023-03-26T22:56:37.163Z,11.95
2023-03-26T22:59:04.122Z,12.03
2023-03-26T23:01:31.065Z,12.13
2023-03-26T23:03:58.326Z,12.00
2023-03-26T23:06:25.113Z,12.03
2023-03-26T23:08:52.050Z,11.91
2023-03-26T23:11:20.602Z,11.71
2023-03-26T23:13:47.926Z,11.85
2023-03-26T23:16:16.650Z,11.93
2023-03-26T23:18:44.082Z,11.88
2023-03-26T23:21:16.400Z,11.69
2023-03-26T23:23:43.060Z,11.73
2023-03-26T23:26:10.735Z,11.80
2023-03-26T23:28:38.337Z,11.74
2023-03-26T23:31:08.929Z,11.77
2023-03-26T23:33:38.007Z,11.84
2023-03-26T23:36:08.973Z,11.75
2023-03-26T23:38:43.743Z,11.70
2023-03-26T23:41:14.806Z,11.57
2023-03-26T23:43:53.710Z,11.65
2023-03-26T23:46:24.409Z,11.55
2023-03-26T23:48:51.826Z,11.42
2023-03-26T23:51:20.073Z,11.22
2023-03-26T23:53:47.734Z,11.15
2023-03-26T23:56:15.318Z,11.27
2023-03-26T23:58:42.087Z,11.20
